sensor_id;sensor_type;location;lat;lon;timestamp;pressure;altitude;pressure_sealevel;temperature;humidity
53270;BME280;39159;45.634;9.420;2022-12-10T00:01:16;97381.00;;;3.15;100.00
53270;BME280;39159;45.634;9.420;2022-12-10T00:03:42;97377.41;;;3.19;100.00
53270;BME280;39159;45.634;9.420;2022-12-10T00:06:11;97389.31;;;3.18;100.00
53270;BME280;39159;45.634;9.420;2022-12-10T00:08:36;97382.50;;;3.21;100.00
53270;BME280;39159;45.634;9.420;2022-12-10T00:11:03;97376.00;;;3.22;100.00
53270;BME280;39159;45.634;9.420;2022-12-10T00:13:30;97371.41;;;3.22;100.00
53270;BME280;39159;45.634;9.420;2022-12-10T00:15:59;97370.84;;;3.25;100.00
53270;BME280;39159;45.634;9.420;2022-12-10T00:18:24;97367.94;;;3.22;100.00
53270;BME280;39159;45.634;9.420;2022-12-10T00:20:50;97373.31;;;3.22;100.00
53270;BME280;39159;45.634;9.420;2022-12-10T00:23:15;97365.84;;;3.19;100.00
53270;BME280;39159;45.634;9.420;2022-12-10T00:25:41;97358.31;;;3.16;100.00
53270;BME280;39159;45.634;9.420;2022-12-10T00:28:06;97355.06;;;3.19;100.00
53270;BME280;39159;45.634;9.420;2022-12-10T00:30:34;97350.47;;;3.19;100.00
53270;BME280;39159;45.634;9.420;2022-12-10T00:33:00;97354.25;;;3.18;100.00
53270;BME280;39159;45.634;9.420;2022-12-10T00:35:25;97342.66;;;3.18;100.00
53270;BME280;39159;45.634;9.420;2022-12-10T00:37:51;97336.97;;;3.19;100.00
53270;BME280;39159;45.634;9.420;2022-12-10T00:40:16;97334.56;;;3.18;100.00
53270;BME280;39159;45.634;9.420;2022-12-10T00:42:42;97341.88;;;3.17;100.00
53270;BME280;39159;45.634;9.420;2022-12-10T00:45:07;97342.16;;;3.16;100.00
53270;BME280;39159;45.634;9.420;2022-12-10T00:47:33;97349.16;;;3.17;100.00
53270;BME280;39159;45.634;9.420;2022-12-10T00:49:58;97345.47;;;3.13;100.00
53270;BME280;39159;45.634;9.420;2022-12-10T00:52:24;97348.16;;;3.13;100.00
53270;BME280;39159;45.634;9.420;2022-12-10T00:54:49;97365.50;;;3.06;100.00
53270;BME280;39159;45.634;9.420;2022-12-10T00:57:15;97361.22;;;3.05;100.00
53270;BME280;39159;45.634;9.420;2022-12-10T00:59:40;97360.72;;;3.03;100.00
53270;BME280;39159;45.634;9.420;2022-12-10T01:02:06;97353.25;;;3.00;100.00
53270;BME280;39159;45.634;9.420;2022-12-10T01:04:31;97351.84;;;3.03;100.00
53270;BME280;39159;45.634;9.420;2022-12-10T01:06:57;97357.25;;;3.03;100.00
53270;BME280;39159;45.634;9.420;2022-12-10T01:09:27;97365.50;;;3.06;100.00
53270;BME280;39159;45.634;9.420;2022-12-10T01:11:53;97362.03;;;3.06;100.00
53270;BME280;39159;45.634;9.420;2022-12-10T01:14:24;97366.81;;;3.09;100.00
53270;BME280;39159;45.634;9.420;2022-12-10T01:16:53;97356.91;;;3.04;100.00
53270;BME280;39159;45.634;9.420;2022-12-10T01:19:19;97366.91;;;3.04;100.00
53270;BME280;39159;45.634;9.420;2022-12-10T01:21:49;97372.28;;;3.04;100.00
53270;BME280;39159;45.634;9.420;2022-12-10T01:24:15;97373.19;;;2.99;100.00
53270;BME280;39159;45.634;9.420;2022-12-10T01:26:41;97366.72;;;3.00;100.00
53270;BME280;39159;45.634;9.420;2022-12-10T01:29:06;97371.00;;;3.01;100.00
53270;BME280;39159;45.634;9.420;2022-12-10T01:31:35;97372.19;;;2.95;100.00
53270;BME280;39159;45.634;9.420;2022-12-10T01:34:02;97360.00;;;2.98;100.00
53270;BME280;39159;45.634;9.420;2022-12-10T01:36:36;97370.50;;;2.99;100.00
53270;BME280;39159;45.634;9.420;2022-12-10T01:39:04;97372.69;;;2.97;100.00
53270;BME280;39159;45.634;9.420;2022-12-10T01:41:33;97370.59;;;2.94;100.00
53270;BME280;39159;45.634;9.420;2022-12-10T01:44:57;97366.22;;;2.98;100.00
53270;BME280;39159;45.634;9.420;2022-12-10T01:46:52;97362.41;;;2.99;100.00
53270;BME280;39159;45.634;9.420;2022-12-10T01:49:35;97368.31;;;3.01;100.00
53270;BME280;39159;45.634;9.420;2022-12-10T01:52:01;97366.91;;;3.04;100.00
53270;BME280;39159;45.634;9.420;2022-12-10T01:54:32;97358.81;;;3.04;100.00
53270;BME280;39159;45.634;9.420;2022-12-10T01:57:04;97358.63;;;3.00;100.00
53270;BME280;39159;45.634;9.420;2022-12-10T01:59:30;97360.72;;;3.03;100.00
53270;BME280;39159;45.634;9.420;2022-12-10T02:07:05;97373.69;;;3.01;100.00
53270;BME280;39159;45.634;9.420;2022-12-10T02:09:42;97359.94;;;3.03;100.00
53270;BME280;39159;45.634;9.420;2022-12-10T02:12:18;97359.63;;;3.04;100.00
53270;BME280;39159;45.634;9.420;2022-12-10T02:14:57;97349.16;;;3.03;100.00
53270;BME280;39159;45.634;9.420;2022-12-10T02:17:46;97346.34;;;3.08;100.00
53270;BME280;39159;45.634;9.420;2022-12-10T02:20:24;97343.94;;;3.06;100.00
53270;BME280;39159;45.634;9.420;2022-12-10T02:22:58;97327.88;;;3.01;100.00
53270;BME280;39159;45.634;9.420;2022-12-10T02:25:36;97328.38;;;3.03;100.00
53270;BME280;39159;45.634;9.420;2022-12-10T02:28:17;97325.78;;;2.98;100.00
53270;BME280;39159;45.634;9.420;2022-12-10T02:30:47;97324.41;;;3.01;100.00
53270;BME280;39159;45.634;9.420;2022-12-10T02:33:14;97313.41;;;2.97;100.00
53270;BME280;39159;45.634;9.420;2022-12-10T02:35:41;97315.53;;;3.00;100.00
53270;BME280;39159;45.634;9.420;2022-12-10T02:38:19;97307.44;;;3.00;100.00
53270;BME280;39159;45.634;9.420;2022-12-10T02:40:51;97311.44;;;3.03;100.00
53270;BME280;39159;45.634;9.420;2022-12-10T02:43:20;97308.41;;;3.04;100.00
53270;BME280;39159;45.634;9.420;2022-12-10T02:45:47;97299.81;;;3.02;100.00
53270;BME280;39159;45.634;9.420;2022-12-10T02:48:13;97309.81;;;3.02;100.00
53270;BME280;39159;45.634;9.420;2022-12-10T02:50:39;97312.31;;;2.98;100.00
53270;BME280;39159;45.634;9.420;2022-12-10T02:53:05;97314.31;;;2.93;100.00
53270;BME280;39159;45.634;9.420;2022-12-10T02:56:04;97315.19;;;2.88;100.00
53270;BME280;39159;45.634;9.420;2022-12-10T02:58:31;97313.63;;;2.87;100.00
53270;BME280;39159;45.634;9.420;2022-12-10T03:01:12;97309.03;;;2.87;100.00
53270;BME280;39159;45.634;9.420;2022-12-10T03:03:54;97298.81;;;2.84;100.00
53270;BME280;39159;45.634;9.420;2022-12-10T03:06:27;97298.75;;;2.89;100.00
53270;BME280;39159;45.634;9.420;2022-12-10T03:09:05;97287.13;;;2.89;100.00
53270;BME280;39159;45.634;9.420;2022-12-10T03:11:32;97294.66;;;2.92;100.00
53270;BME280;39159;45.634;9.420;2022-12-10T03:14:28;97291.16;;;2.92;100.00
53270;BME280;39159;45.634;9.420;2022-12-10T03:16:59;97285.44;;;2.93;100.00
53270;BME280;39159;45.634;9.420;2022-12-10T03:19:37;97282.47;;;2.95;100.00
53270;BME280;39159;45.634;9.420;2022-12-10T03:22:07;97271.59;;;3.00;100.00
53270;BME280;39159;45.634;9.420;2022-12-10T03:24:35;97257.59;;;2.98;100.00
53270;BME280;39159;45.634;9.420;2022-12-10T03:27:03;97257.53;;;3.03;100.00
53270;BME280;39159;45.634;9.420;2022-12-10T03:29:40;97264.31;;;3.00;100.00
53270;BME280;39159;45.634;9.420;2022-12-10T03:32:09;97266.50;;;2.98;100.00
53270;BME280;39159;45.634;9.420;2022-12-10T03:34:34;97268.72;;;2.96;100.00
53270;BME280;39159;45.634;9.420;2022-12-10T03:37:01;97260.00;;;2.99;100.00
53270;BME280;39159;45.634;9.420;2022-12-10T03:39:27;97261.31;;;3.02;100.00
53270;BME280;39159;45.634;9.420;2022-12-10T03:41:53;97272.00;;;3.07;100.00
53270;BME280;39159;45.634;9.420;2022-12-10T03:44:33;97272.59;;;3.04;100.00
53270;BME280;39159;45.634;9.420;2022-12-10T03:46:59;97272.09;;;3.02;100.00
53270;BME280;39159;45.634;9.420;2022-12-10T03:49:25;97267.97;;;3.04;100.00
53270;BME280;39159;45.634;9.420;2022-12-10T03:51:51;97270.78;;;2.99;100.00
53270;BME280;39159;45.634;9.420;2022-12-10T03:54:16;97268.22;;;2.94;100.00
53270;BME280;39159;45.634;9.420;2022-12-10T03:56:42;97255.22;;;2.96;100.00
53270;BME280;39159;45.634;9.420;2022-12-10T03:59:07;97254.63;;;2.99;100.00
53270;BME280;39159;45.634;9.420;2022-12-10T04:01:33;97255.13;;;3.01;100.00
53270;BME280;39159;45.634;9.420;2022-12-10T04:03:58;97256.22;;;3.00;100.00
53270;BME280;39159;45.634;9.420;2022-12-10T04:06:24;97257.53;;;3.03;100.00
53270;BME280;39159;45.634;9.420;2022-12-10T04:08:51;97256.81;;;2.97;100.00
53270;BME280;39159;45.634;9.420;2022-12-10T04:11:17;97255.72;;;2.98;100.00
53270;BME280;39159;45.634;9.420;2022-12-10T04:13:43;97256.03;;;2.97;100.00
53270;BME280;39159;45.634;9.420;2022-12-10T04:16:28;97265.41;;;2.99;100.00
53270;BME280;39159;45.634;9.420;2022-12-10T04:19:05;97267.00;;;3.00;100.00
53270;BME280;39159;45.634;9.420;2022-12-10T04:21:33;97265.91;;;3.01;100.00
53270;BME280;39159;45.634;9.420;2022-12-10T04:24:23;97264.91;;;2.97;100.00
53270;BME280;39159;45.634;9.420;2022-12-10T04:27:10;97266.50;;;2.98;100.00
53270;BME280;39159;45.634;9.420;2022-12-10T04:29:36;97263.50;;;3.00;100.00
53270;BME280;39159;45.634;9.420;2022-12-10T04:32:02;97269.72;;;3.00;100.00
53270;BME280;39159;45.634;9.420;2022-12-10T04:34:27;97265.09;;;3.01;100.00
53270;BME280;39159;45.634;9.420;2022-12-10T04:36:53;97262.09;;;3.02;100.00
53270;BME280;39159;45.634;9.420;2022-12-10T04:39:19;97265.91;;;3.01;100.00
53270;BME280;39159;45.634;9.420;2022-12-10T04:41:47;97264.31;;;3.00;100.00
53270;BME280;39159;45.634;9.420;2022-12-10T04:44:12;97266.69;;;3.02;100.00
53270;BME280;39159;45.634;9.420;2022-12-10T04:46:38;97266.41;;;3.03;100.00
53270;BME280;39159;45.634;9.420;2022-12-10T04:49:04;97262.59;;;3.04;100.00
53270;BME280;39159;45.634;9.420;2022-12-10T04:51:30;97259.09;;;3.04;100.00
53270;BME280;39159;45.634;9.420;2022-12-10T04:53:58;97267.69;;;3.06;100.00
53270;BME280;39159;45.634;9.420;2022-12-10T04:56:23;97274.69;;;3.07;100.00
53270;BME280;39159;45.634;9.420;2022-12-10T04:58:49;97273.28;;;3.09;100.00
53270;BME280;39159;45.634;9.420;2022-12-10T05:01:15;97274.88;;;3.10;100.00
53270;BME280;39159;45.634;9.420;2022-12-10T05:03:41;97272.69;;;3.13;100.00
53270;BME280;39159;45.634;9.420;2022-12-10T05:06:12;97269.38;;;3.16;100.00
53270;BME280;39159;45.634;9.420;2022-12-10T05:08:39;97264.59;;;3.13;100.00
53270;BME280;39159;45.634;9.420;2022-12-10T05:11:16;97272.38;;;3.14;100.00
53270;BME280;39159;45.634;9.420;2022-12-10T05:13:42;97270.59;;;3.09;100.00
53270;BME280;39159;45.634;9.420;2022-12-10T05:16:10;97263.09;;;3.06;100.00
53270;BME280;39159;45.634;9.420;2022-12-10T05:18:36;97255.50;;;3.08;100.00
53270;BME280;39159;45.634;9.420;2022-12-10T05:21:04;97259.50;;;3.11;100.00
53270;BME280;39159;45.634;9.420;2022-12-10T05:23:31;97263.72;;;3.03;100.00
53270;BME280;39159;45.634;9.420;2022-12-10T05:26:06;97255.00;;;3.06;100.00
53270;BME280;39159;45.634;9.420;2022-12-10T05:28:37;97270.59;;;3.09;100.00
53270;BME280;39159;45.634;9.420;2022-12-10T05:31:04;97268.19;;;3.08;100.00
53270;BME280;39159;45.634;9.420;2022-12-10T05:33:30;97259.41;;;3.02;100.00
53270;BME280;39159;45.634;9.420;2022-12-10T05:35:59;97252.13;;;3.03;100.00
53270;BME280;39159;45.634;9.420;2022-12-10T05:38:26;97256.13;;;3.05;100.00
53270;BME280;39159;45.634;9.420;2022-12-10T05:40:52;97254.72;;;3.08;100.00
53270;BME280;39159;45.634;9.420;2022-12-10T05:43:18;97253.13;;;3.07;100.00
53270;BME280;39159;45.634;9.420;2022-12-10T05:45:44;97240.06;;;3.00;100.00
53270;BME280;39159;45.634;9.420;2022-12-10T05:48:11;97255.72;;;3.12;100.00
53270;BME280;39159;45.634;9.420;2022-12-10T05:50:37;97252.22;;;3.11;100.00
53270;BME280;39159;45.634;9.420;2022-12-10T05:53:03;97255.09;;;3.15;100.00
53270;BME280;39159;45.634;9.420;2022-12-10T05:55:28;97255.00;;;3.06;100.00
53270;BME280;39159;45.634;9.420;2022-12-10T05:57:55;97260.09;;;3.08;100.00
53270;BME280;39159;45.634;9.420;2022-12-10T06:00:20;97260.91;;;3.08;100.00
53270;BME280;39159;45.634;9.420;2022-12-10T06:02:49;97263.00;;;3.11;100.00
53270;BME280;39159;45.634;9.420;2022-12-10T06:05:15;97255.59;;;3.17;100.00
53270;BME280;39159;45.634;9.420;2022-12-10T06:07:40;97265.31;;;3.18;100.00
53270;BME280;39159;45.634;9.420;2022-12-10T06:10:06;97266.38;;;3.17;100.00
53270;BME280;39159;45.634;9.420;2022-12-10T06:12:31;97252.63;;;3.19;100.00
53270;BME280;39159;45.634;9.420;2022-12-10T06:14:57;97247.72;;;3.21;100.00
53270;BME280;39159;45.634;9.420;2022-12-10T06:17:22;97243.34;;;3.25;100.00
53270;BME280;39159;45.634;9.420;2022-12-10T06:19:47;97245.53;;;3.23;100.00
53270;BME280;39159;45.634;9.420;2022-12-10T06:22:13;97242.22;;;3.26;100.00
53270;BME280;39159;45.634;9.420;2022-12-10T06:24:38;97250.31;;;3.26;100.00
53270;BME280;39159;45.634;9.420;2022-12-10T06:27:04;97246.31;;;3.23;100.00
53270;BME280;39159;45.634;9.420;2022-12-10T06:29:30;97249.31;;;3.22;100.00
53270;BME280;39159;45.634;9.420;2022-12-10T06:31:56;97249.81;;;3.24;100.00
53270;BME280;39159;45.634;9.420;2022-12-10T06:34:21;97250.09;;;3.22;100.00
53270;BME280;39159;45.634;9.420;2022-12-10T06:36:47;97248.31;;;3.18;100.00
53270;BME280;39159;45.634;9.420;2022-12-10T06:39:12;97246.94;;;3.20;100.00
53270;BME280;39159;45.634;9.420;2022-12-10T06:41:38;97239.03;;;3.24;100.00
53270;BME280;39159;45.634;9.420;2022-12-10T06:44:07;97249.00;;;3.23;100.00
53270;BME280;39159;45.634;9.420;2022-12-10T06:46:32;97255.50;;;3.22;100.00
53270;BME280;39159;45.634;9.420;2022-12-10T06:48:58;97257.91;;;3.24;100.00
53270;BME280;39159;45.634;9.420;2022-12-10T06:51:24;97259.19;;;3.26;100.00
53270;BME280;39159;45.634;9.420;2022-12-10T06:53:50;97252.22;;;3.25;100.00
53270;BME280;39159;45.634;9.420;2022-12-10T06:56:17;97247.19;;;3.32;100.00
53270;BME280;39159;45.634;9.420;2022-12-10T06:58:44;97245.00;;;3.35;100.00
53270;BME280;39159;45.634;9.420;2022-12-10T07:01:19;97241.94;;;3.27;100.00
53270;BME280;39159;45.634;9.420;2022-12-10T07:03:49;97245.28;;;3.33;100.00
53270;BME280;39159;45.634;9.420;2022-12-10T07:06:14;97248.50;;;3.35;100.00
53270;BME280;39159;45.634;9.420;2022-12-10T07:08:40;97263.09;;;3.34;100.00
53270;BME280;39159;45.634;9.420;2022-12-10T07:11:07;97259.47;;;3.39;100.00
53270;BME280;39159;45.634;9.420;2022-12-10T07:13:34;97263.25;;;3.38;100.00
53270;BME280;39159;45.634;9.420;2022-12-10T07:15:59;97270.06;;;3.35;100.00
53270;BME280;39159;45.634;9.420;2022-12-10T07:18:25;97256.69;;;3.30;100.00
53270;BME280;39159;45.634;9.420;2022-12-10T07:20:51;97256.09;;;3.33;100.00
53270;BME280;39159;45.634;9.420;2022-12-10T07:23:17;97253.09;;;3.35;100.00
53270;BME280;39159;45.634;9.420;2022-12-10T07:25:43;97253.88;;;3.35;100.00
53270;BME280;39159;45.634;9.420;2022-12-10T07:28:08;97253.88;;;3.35;100.00
53270;BME280;39159;45.634;9.420;2022-12-10T07:30:34;97257.06;;;3.37;100.00
53270;BME280;39159;45.634;9.420;2022-12-10T07:32:59;97252.97;;;3.40;100.00
53270;BME280;39159;45.634;9.420;2022-12-10T07:35:25;97256.50;;;3.40;100.00
53270;BME280;39159;45.634;9.420;2022-12-10T07:37:50;97251.88;;;3.41;100.00
53270;BME280;39159;45.634;9.420;2022-12-10T07:40:16;97260.47;;;3.43;100.00
53270;BME280;39159;45.634;9.420;2022-12-10T07:42:41;97254.25;;;3.42;100.00
53270;BME280;39159;45.634;9.420;2022-12-10T07:45:07;97253.69;;;3.45;100.00
53270;BME280;39159;45.634;9.420;2022-12-10T07:47:35;97250.38;;;3.48;100.00
53270;BME280;39159;45.634;9.420;2022-12-10T07:50:01;97257.38;;;3.49;100.00
53270;BME280;39159;45.634;9.420;2022-12-10T07:52:27;97262.44;;;3.51;100.00
53270;BME280;39159;45.634;9.420;2022-12-10T07:54:52;97258.66;;;3.52;100.00
53270;BME280;39159;45.634;9.420;2022-12-10T07:57:17;97253.25;;;3.52;100.00
53270;BME280;39159;45.634;9.420;2022-12-10T07:59:43;97261.53;;;3.56;100.00
53270;BME280;39159;45.634;9.420;2022-12-10T08:02:09;97255.03;;;3.57;100.00
53270;BME280;39159;45.634;9.420;2022-12-10T08:04:34;97259.81;;;3.60;100.00
53270;BME280;39159;45.634;9.420;2022-12-10T08:07:00;97259.53;;;3.61;100.00
53270;BME280;39159;45.634;9.420;2022-12-10T08:09:26;97254.13;;;3.61;100.00
53270;BME280;39159;45.634;9.420;2022-12-10T08:11:52;97253.22;;;3.66;100.00
53270;BME280;39159;45.634;9.420;2022-12-10T08:14:18;97251.81;;;3.68;100.00
53270;BME280;39159;45.634;9.420;2022-12-10T08:16:43;97245.50;;;3.73;100.00
53270;BME280;39159;45.634;9.420;2022-12-10T08:19:08;97246.63;;;3.72;100.00
53270;BME280;39159;45.634;9.420;2022-12-10T08:21:34;97253.72;;;3.68;100.00
53270;BME280;39159;45.634;9.420;2022-12-10T08:24:00;97262.19;;;3.75;100.00
53270;BME280;39159;45.634;9.420;2022-12-10T08:26:28;97263.66;;;3.81;100.00
53270;BME280;39159;45.634;9.420;2022-12-10T08:28:55;97266.84;;;3.83;100.00
53270;BME280;39159;45.634;9.420;2022-12-10T08:31:22;97268.75;;;3.83;100.00
53270;BME280;39159;45.634;9.420;2022-12-10T08:33:48;97275.44;;;3.85;100.00
53270;BME280;39159;45.634;9.420;2022-12-10T08:36:15;97273.16;;;3.79;100.00
53270;BME280;39159;45.634;9.420;2022-12-10T08:38:41;97276.94;;;3.91;100.00
53270;BME280;39159;45.634;9.420;2022-12-10T08:41:19;97272.50;;;3.95;100.00
53270;BME280;39159;45.634;9.420;2022-12-10T08:43:45;97279.88;;;4.04;100.00
53270;BME280;39159;45.634;9.420;2022-12-10T08:46:12;97275.75;;;4.06;100.00
53270;BME280;39159;45.634;9.420;2022-12-10T08:48:38;97274.47;;;4.04;100.00
53270;BME280;39159;45.634;9.420;2022-12-10T08:51:04;97280.66;;;4.04;100.00
53270;BME280;39159;45.634;9.420;2022-12-10T08:53:30;97276.50;;;3.98;100.00
53270;BME280;39159;45.634;9.420;2022-12-10T08:55:55;97270.00;;;3.99;100.00
53270;BME280;39159;45.634;9.420;2022-12-10T08:58:21;97277.72;;;3.92;100.00
53270;BME280;39159;45.634;9.420;2022-12-10T09:00:48;97285.41;;;3.99;100.00
53270;BME280;39159;45.634;9.420;2022-12-10T09:03:13;97279.66;;;4.00;100.00
53270;BME280;39159;45.634;9.420;2022-12-10T09:05:39;97276.19;;;4.00;100.00
53270;BME280;39159;45.634;9.420;2022-12-10T09:08:05;97271.78;;;4.04;100.00
53270;BME280;39159;45.634;9.420;2022-12-10T09:10:30;97277.53;;;4.11;100.00
53270;BME280;39159;45.634;9.420;2022-12-10T09:12:56;97286.75;;;4.10;100.00
53270;BME280;39159;45.634;9.420;2022-12-10T09:15:21;97278.34;;;4.11;100.00
53270;BME280;39159;45.634;9.420;2022-12-10T09:17:47;97279.44;;;4.10;100.00
53270;BME280;39159;45.634;9.420;2022-12-10T09:20:12;97279.75;;;4.09;100.00
53270;BME280;39159;45.634;9.420;2022-12-10T09:22:38;97276.13;;;4.13;100.00
53270;BME280;39159;45.634;9.420;2022-12-10T09:25:08;97272.75;;;4.08;100.00
53270;BME280;39159;45.634;9.420;2022-12-10T09:27:39;97273.97;;;4.02;100.00
53270;BME280;39159;45.634;9.420;2022-12-10T09:30:05;97271.78;;;4.04;100.00
53270;BME280;39159;45.634;9.420;2022-12-10T09:32:31;97277.47;;;4.02;100.00
53270;BME280;39159;45.634;9.420;2022-12-10T09:34:56;97279.88;;;4.04;100.00
53270;BME280;39159;45.634;9.420;2022-12-10T09:37:22;97273.25;;;4.10;100.00
53270;BME280;39159;45.634;9.420;2022-12-10T09:39:47;97272.47;;;4.09;100.00
53270;BME280;39159;45.634;9.420;2022-12-10T09:45:18;97271.13;;;3.98;100.00
53270;BME280;39159;45.634;9.420;2022-12-10T09:47:57;97270.19;;;4.03;100.00
53270;BME280;39159;45.634;9.420;2022-12-10T09:53:13;97250.91;;;3.95;100.00
53270;BME280;39159;45.634;9.420;2022-12-10T09:55:45;97257.13;;;3.96;100.00
53270;BME280;39159;45.634;9.420;2022-12-10T09:58:29;97251.72;;;3.96;100.00
53270;BME280;39159;45.634;9.420;2022-12-10T10:01:00;97256.00;;;3.97;100.00
53270;BME280;39159;45.634;9.420;2022-12-10T10:03:28;97249.81;;;3.97;100.00
53270;BME280;39159;45.634;9.420;2022-12-10T10:05:56;97245.69;;;3.99;100.00
53270;BME280;39159;45.634;9.420;2022-12-10T10:10:47;97236.81;;;3.99;100.00
53270;BME280;39159;45.634;9.420;2022-12-10T10:14:01;97232.69;;;4.01;100.00
53270;BME280;39159;45.634;9.420;2022-12-10T10:16:23;97236.69;;;4.04;100.00
53270;BME280;39159;45.634;9.420;2022-12-10T10:21:33;97229.06;;;4.06;100.00
53270;BME280;39159;45.634;9.420;2022-12-10T10:24:02;97229.28;;;4.09;100.00
53270;BME280;39159;45.634;9.420;2022-12-10T10:26:28;97227.66;;;4.08;100.00
53270;BME280;39159;45.634;9.420;2022-12-10T10:28:58;97219.41;;;4.13;100.00
53270;BME280;39159;45.634;9.420;2022-12-10T10:31:28;97215.63;;;4.14;100.00
53270;BME280;39159;45.634;9.420;2022-12-10T10:33:57;97206.31;;;4.21;100.00
53270;BME280;39159;45.634;9.420;2022-12-10T10:36:30;97212.34;;;4.26;100.00
53270;BME280;39159;45.634;9.420;2022-12-10T10:39:11;97210.63;;;4.30;100.00
53270;BME280;39159;45.634;9.420;2022-12-10T10:41:38;97200.81;;;4.34;100.00
53270;BME280;39159;45.634;9.420;2022-12-10T10:44:05;97198.75;;;4.40;100.00
53270;BME280;39159;45.634;9.420;2022-12-10T10:46:38;97192.47;;;4.45;100.00
53270;BME280;39159;45.634;9.420;2022-12-10T10:49:18;97199.94;;;4.48;100.00
53270;BME280;39159;45.634;9.420;2022-12-10T10:51:44;97200.38;;;4.41;100.00
53270;BME280;39159;45.634;9.420;2022-12-10T10:54:34;97194.53;;;4.48;100.00
53270;BME280;39159;45.634;9.420;2022-12-10T10:57:24;97190.84;;;4.44;100.00
53270;BME280;39159;45.634;9.420;2022-12-10T10:59:55;97191.19;;;4.51;100.00
53270;BME280;39159;45.634;9.420;2022-12-10T11:02:36;97181.81;;;4.48;100.00
53270;BME280;39159;45.634;9.420;2022-12-10T11:05:14;97182.03;;;4.61;100.00
53270;BME280;39159;45.634;9.420;2022-12-10T11:07:41;97178.88;;;4.67;100.00
53270;BME280;39159;45.634;9.420;2022-12-10T11:10:23;97168.69;;;4.73;100.00
53270;BME280;39159;45.634;9.420;2022-12-10T11:15:37;97166.50;;;4.84;100.00
53270;BME280;39159;45.634;9.420;2022-12-10T11:18:35;97153.00;;;4.84;100.00
53270;BME280;39159;45.634;9.420;2022-12-10T11:23:41;97147.47;;;4.97;100.00
53270;BME280;39159;45.634;9.420;2022-12-10T11:31:37;97137.31;;;5.03;100.00
53270;BME280;39159;45.634;9.420;2022-12-10T11:37:34;97138.28;;;5.25;100.00
53270;BME280;39159;45.634;9.420;2022-12-10T11:43:13;97127.00;;;5.23;100.00
53270;BME280;39159;45.634;9.420;2022-12-10T11:49:25;97127.63;;;5.28;100.00
53270;BME280;39159;45.634;9.420;2022-12-10T11:51:43;97127.63;;;5.28;100.00
53270;BME280;39159;45.634;9.420;2022-12-10T11:54:29;97127.63;;;5.28;100.00
53270;BME280;39159;45.634;9.420;2022-12-10T11:57:01;97120.78;;;5.31;100.00
53270;BME280;39159;45.634;9.420;2022-12-10T12:05:14;97101.53;;;5.50;100.00
53270;BME280;39159;45.634;9.420;2022-12-10T12:11:01;97104.69;;;5.60;100.00
53270;BME280;39159;45.634;9.420;2022-12-10T12:13:41;97098.63;;;5.64;100.00
53270;BME280;39159;45.634;9.420;2022-12-10T12:16:17;97094.78;;;5.65;100.00
53270;BME280;39159;45.634;9.420;2022-12-10T12:18:54;97094.66;;;5.70;100.00
53270;BME280;39159;45.634;9.420;2022-12-10T12:21:21;97091.16;;;5.60;100.00
53270;BME280;39159;45.634;9.420;2022-12-10T12:23:54;97083.81;;;5.70;100.00
53270;BME280;39159;45.634;9.420;2022-12-10T12:26:41;97078.22;;;5.75;100.00
53270;BME280;39159;45.634;9.420;2022-12-10T12:29:30;97082.03;;;5.82;100.00
53270;BME280;39159;45.634;9.420;2022-12-10T12:32:18;97083.91;;;5.91;100.00
53270;BME280;39159;45.634;9.420;2022-12-10T12:34:56;97078.81;;;5.98;100.00
53270;BME280;39159;45.634;9.420;2022-12-10T12:37:32;97073.38;;;6.07;100.00
53270;BME280;39159;45.634;9.420;2022-12-10T12:40:27;97076.88;;;6.16;100.00
53270;BME280;39159;45.634;9.420;2022-12-10T12:45:48;97068.88;;;6.19;100.00
53270;BME280;39159;45.634;9.420;2022-12-10T12:48:16;97071.69;;;6.32;100.00
53270;BME280;39159;45.634;9.420;2022-12-10T12:50:53;97061.94;;;6.39;100.00
53270;BME280;39159;45.634;9.420;2022-12-10T12:53:22;97074.97;;;6.46;100.00
53270;BME280;39159;45.634;9.420;2022-12-10T12:56:10;97063.94;;;6.51;100.00
53270;BME280;39159;45.634;9.420;2022-12-10T13:02:02;97053.13;;;6.72;100.00
53270;BME280;39159;45.634;9.420;2022-12-10T13:04:33;97045.88;;;6.85;100.00
53270;BME280;39159;45.634;9.420;2022-12-10T13:09:50;97060.25;;;6.56;100.00
53270;BME280;39159;45.634;9.420;2022-12-10T13:19:40;97060.34;;;6.38;100.00
53270;BME280;39159;45.634;9.420;2022-12-10T13:27:37;97049.50;;;6.38;100.00
53270;BME280;39159;45.634;9.420;2022-12-10T13:30:28;97046.47;;;6.40;100.00
53270;BME280;39159;45.634;9.420;2022-12-10T13:33:18;97044.88;;;6.39;100.00
53270;BME280;39159;45.634;9.420;2022-12-10T13:35:57;97041.22;;;6.35;100.00
53270;BME280;39159;45.634;9.420;2022-12-10T13:38:25;97044.72;;;6.35;100.00
53270;BME280;39159;45.634;9.420;2022-12-10T13:41:03;97028.63;;;6.39;100.00
53270;BME280;39159;45.634;9.420;2022-12-10T13:43:57;97032.59;;;6.41;100.00
53270;BME280;39159;45.634;9.420;2022-12-10T13:47:22;97025.25;;;6.42;100.00
53270;BME280;39159;45.634;9.420;2022-12-10T13:49:54;97031.59;;;6.46;100.00
53270;BME280;39159;45.634;9.420;2022-12-10T13:55:32;97032.28;;;6.43;100.00
53270;BME280;39159;45.634;9.420;2022-12-10T14:01:13;97034.84;;;6.39;100.00
53270;BME280;39159;45.634;9.420;2022-12-10T14:06:22;97026.13;;;6.34;100.00
53270;BME280;39159;45.634;9.420;2022-12-10T14:09:16;97031.41;;;6.21;100.00
53270;BME280;39159;45.634;9.420;2022-12-10T14:11:47;97032.13;;;6.10;100.00
53270;BME280;39159;45.634;9.420;2022-12-10T14:14:23;97047.16;;;5.98;100.00
53270;BME280;39159;45.634;9.420;2022-12-10T14:16:50;97049.06;;;5.89;100.00
53270;BME280;39159;45.634;9.420;2022-12-10T14:19:16;97055.09;;;5.86;100.00
53270;BME280;39159;45.634;9.420;2022-12-10T14:21:45;97055.28;;;5.81;100.00
53270;BME280;39159;45.634;9.420;2022-12-10T14:24:36;97053.69;;;5.80;100.00
53270;BME280;39159;45.634;9.420;2022-12-10T14:27:17;97050.19;;;5.79;100.00
53270;BME280;39159;45.634;9.420;2022-12-10T14:29:48;97060.53;;;5.77;100.00
53270;BME280;39159;45.634;9.420;2022-12-10T14:32:17;97065.81;;;5.74;100.00